createdAt,value
2018-07-05T00:01:16.279Z,7.60
2018-07-05T00:04:03.151Z,9.80
2018-07-05T00:06:43.858Z,8.73
2018-07-05T00:09:30.504Z,8.60
2018-07-05T00:12:17.074Z,8.37
2018-07-05T00:15:03.787Z,7.60
2018-07-05T00:17:50.391Z,8.97
2018-07-05T00:20:37.048Z,7.60
2018-07-05T00:23:23.688Z,9.53
2018-07-05T00:26:11.124Z,7.27
2018-07-05T00:28:58.099Z,8.07
2018-07-05T00:31:45.031Z,6.80
2018-07-05T00:34:32.470Z,10.37
2018-07-05T00:37:19.694Z,6.27
2018-07-05T00:40:06.774Z,7.77
2018-07-05T00:42:54.236Z,13.87
2018-07-05T00:45:41.147Z,11.43
2018-07-05T00:48:28.310Z,10.33
2018-07-05T00:51:15.362Z,12.23
2018-07-05T00:54:02.667Z,11.10
2018-07-05T00:56:49.995Z,9.57
2018-07-05T00:59:37.505Z,8.63
2018-07-05T01:02:25.014Z,10.97
2018-07-05T01:05:12.595Z,12.33
2018-07-05T01:07:59.735Z,11.73
2018-07-05T01:10:46.677Z,12.37
2018-07-05T01:13:28.161Z,9.73
2018-07-05T01:16:15.487Z,10.70
2018-07-05T01:19:02.468Z,10.13
2018-07-05T01:21:49.579Z,7.80
2018-07-05T01:24:36.486Z,9.70
2018-07-05T01:27:24.348Z,11.63
2018-07-05T01:30:10.927Z,11.80
2018-07-05T01:32:57.907Z,10.03
2018-07-05T01:35:45.625Z,11.47
2018-07-05T01:38:33.010Z,11.87
2018-07-05T01:41:20.126Z,11.33
2018-07-05T01:44:07.080Z,9.53
2018-07-05T01:46:54.255Z,8.73
2018-07-05T01:49:40.719Z,11.13
2018-07-05T01:52:27.472Z,10.80
2018-07-05T01:55:14.233Z,10.63
2018-07-05T01:58:00.792Z,10.27
2018-07-05T02:00:41.573Z,8.03
2018-07-05T02:03:28.071Z,8.83
2018-07-05T02:06:14.507Z,10.40
2018-07-05T02:09:01.178Z,10.33
2018-07-05T02:11:48.135Z,11.87
2018-07-05T02:14:35.183Z,11.90
2018-07-05T02:17:22.397Z,10.70
2018-07-05T02:20:09.344Z,8.73
2018-07-05T02:22:56.473Z,9.87
2018-07-05T02:25:44.367Z,10.73
2018-07-05T02:28:31.262Z,9.70
2018-07-05T02:31:18.385Z,12.47
2018-07-05T02:34:12.399Z,10.53
2018-07-05T02:36:59.238Z,12.30
2018-07-05T02:39:45.174Z,10.53
2018-07-05T02:42:32.180Z,11.35
2018-07-05T02:45:19.208Z,10.70
2018-07-05T02:48:05.700Z,11.80
2018-07-05T02:50:52.612Z,10.73
2018-07-05T02:53:39.379Z,10.13
2018-07-05T02:56:26.143Z,11.73
2018-07-05T02:59:12.903Z,9.57
2018-07-05T03:01:59.485Z,9.83
2018-07-05T03:04:46.312Z,12.73
2018-07-05T03:07:32.973Z,9.70
2018-07-05T03:10:19.675Z,10.07
2018-07-05T03:13:06.407Z,12.33
2018-07-05T03:15:53.200Z,11.10
2018-07-05T03:18:39.871Z,11.90
2018-07-05T03:21:26.604Z,12.37
2018-07-05T03:24:13.282Z,15.40
2018-07-05T03:26:59.935Z,11.33
2018-07-05T03:29:46.485Z,9.77
2018-07-05T03:32:33.197Z,15.30
2018-07-05T03:35:19.958Z,17.63
2018-07-05T03:38:06.422Z,13.13
2018-07-05T03:40:53.079Z,16.50
2018-07-05T03:43:39.636Z,11.90
2018-07-05T03:46:26.325Z,14.90
2018-07-05T03:49:13.338Z,13.53
2018-07-05T03:51:59.969Z,13.60
2018-07-05T03:54:46.571Z,12.50
2018-07-05T03:57:33.224Z,12.93
2018-07-05T04:00:19.878Z,10.47
2018-07-05T04:03:06.446Z,12.60
2018-07-05T04:05:52.996Z,9.97
2018-07-05T04:08:39.549Z,11.90
2018-07-05T04:11:26.257Z,9.53
2018-07-05T04:14:12.908Z,8.43
2018-07-05T04:16:59.587Z,13.10
2018-07-05T04:19:49.430Z,11.60
2018-07-05T04:22:36.107Z,10.10
2018-07-05T04:25:22.786Z,13.90
2018-07-05T04:28:09.424Z,14.63
2018-07-05T04:30:55.939Z,15.60
2018-07-05T04:33:42.666Z,12.87
2018-07-05T04:36:29.367Z,13.23
2018-07-05T04:39:15.868Z,10.63
2018-07-05T04:42:02.377Z,11.03
2018-07-05T04:44:49.031Z,12.97
2018-07-05T04:47:35.671Z,13.83
2018-07-05T04:50:22.285Z,12.20
2018-07-05T04:53:08.955Z,14.27
2018-07-05T04:55:56.090Z,14.53
2018-07-05T04:58:43.093Z,10.90
2018-07-05T05:01:30.330Z,11.13
2018-07-05T05:04:16.869Z,11.03
2018-07-05T05:07:03.974Z,12.90
2018-07-05T05:09:50.494Z,15.10
2018-07-05T05:12:37.101Z,13.13
2018-07-05T05:15:23.792Z,12.77
2018-07-05T05:18:10.516Z,12.90
2018-07-05T05:20:57.317Z,15.80
2018-07-05T05:23:37.893Z,12.20
2018-07-05T05:26:24.664Z,14.07
2018-07-05T05:29:11.361Z,14.10
2018-07-05T05:31:58.068Z,12.17
2018-07-05T05:34:44.864Z,13.13
2018-07-05T05:37:31.626Z,14.60
2018-07-05T05:40:18.285Z,15.67
2018-07-05T05:43:05.472Z,20.27
2018-07-05T05:45:52.177Z,16.43
2018-07-05T05:48:39.249Z,15.33
2018-07-05T05:51:26.145Z,13.60
2018-07-05T05:54:12.769Z,15.63
2018-07-05T05:56:59.415Z,16.77
2018-07-05T05:59:46.595Z,14.83
2018-07-05T06:02:33.595Z,13.00
2018-07-05T06:05:20.846Z,17.23
2018-07-05T06:08:07.477Z,19.93
2018-07-05T06:10:54.153Z,12.40
2018-07-05T06:13:40.705Z,14.23
2018-07-05T06:16:27.474Z,17.67
2018-07-05T06:19:14.026Z,11.90
2018-07-05T06:22:00.585Z,15.33
2018-07-05T06:24:47.395Z,15.93
2018-07-05T06:27:34.005Z,15.63
2018-07-05T06:30:20.893Z,12.70
2018-07-05T06:33:02.244Z,16.23
2018-07-05T06:35:50.154Z,15.13
2018-07-05T06:38:36.952Z,17.10
2018-07-05T06:41:23.655Z,15.70
2018-07-05T06:44:10.851Z,15.97
2018-07-05T06:46:57.963Z,17.93
2018-07-05T06:49:45.070Z,19.00
2018-07-05T06:52:32.595Z,12.23
2018-07-05T06:55:19.968Z,16.03
2018-07-05T06:58:07.024Z,16.57
2018-07-05T07:00:54.008Z,16.30
2018-07-05T07:03:40.928Z,16.03
2018-07-05T07:06:28.376Z,14.03
2018-07-05T07:09:15.971Z,16.13
2018-07-05T07:12:03.139Z,11.57
2018-07-05T07:14:50.317Z,12.53
2018-07-05T07:17:37.546Z,10.83
2018-07-05T07:20:24.359Z,13.43
2018-07-05T07:23:11.164Z,13.13
2018-07-05T07:25:57.862Z,13.83
2018-07-05T07:28:44.544Z,11.27
2018-07-05T07:31:31.019Z,11.30
2018-07-05T07:34:17.568Z,14.73
2018-07-05T07:37:04.256Z,13.10
2018-07-05T07:39:50.856Z,12.83
2018-07-05T07:42:18.977Z,16.07
2018-07-05T07:44:47.093Z,11.47
2018-07-05T07:47:15.204Z,14.07
2018-07-05T07:49:43.336Z,14.93
2018-07-05T07:52:11.448Z,11.47
2018-07-05T07:54:39.564Z,9.73
2018-07-05T07:57:07.677Z,12.07
2018-07-05T07:59:36.058Z,11.13
2018-07-05T08:02:04.205Z,13.07
2018-07-05T08:04:32.328Z,10.67
2018-07-05T08:07:00.480Z,10.47
2018-07-05T08:09:28.941Z,10.27
2018-07-05T08:11:57.110Z,8.77
2018-07-05T08:14:25.232Z,12.33
2018-07-05T08:16:53.360Z,8.67
2018-07-05T08:19:21.476Z,8.93
2018-07-05T08:21:49.603Z,8.53
2018-07-05T08:24:17.723Z,10.80
2018-07-05T08:26:45.880Z,9.07
2018-07-05T08:29:14.025Z,9.33
2018-07-05T08:31:42.128Z,9.37
2018-07-05T08:34:10.235Z,9.07
2018-07-05T08:36:38.618Z,8.57
2018-07-05T08:39:07.469Z,8.37
2018-07-05T08:41:36.191Z,7.57
2018-07-05T08:44:04.659Z,9.43
2018-07-05T08:46:33.261Z,10.27
2018-07-05T08:49:01.825Z,7.50
2018-07-05T08:51:30.655Z,7.97
2018-07-05T08:53:59.079Z,11.30
2018-07-05T08:56:27.445Z,9.23
2018-07-05T08:58:56.083Z,8.23
2018-07-05T09:01:24.805Z,7.53
2018-07-05T09:03:53.352Z,8.10
2018-07-05T09:06:22.158Z,6.67
2018-07-05T09:08:51.104Z,11.33
2018-07-05T09:11:19.875Z,7.17
2018-07-05T09:13:48.402Z,6.80
2018-07-05T09:16:16.809Z,7.00
2018-07-05T09:18:45.711Z,8.47
2018-07-05T09:21:14.097Z,6.27
2018-07-05T09:23:42.750Z,6.60
2018-07-05T09:26:11.327Z,8.23
2018-07-05T09:28:40.194Z,10.90
2018-07-05T09:31:08.803Z,8.10
2018-07-05T09:33:37.271Z,7.33
2018-07-05T09:36:05.974Z,7.27
2018-07-05T09:38:34.736Z,6.87
2018-07-05T09:41:03.284Z,7.13
2018-07-05T09:43:31.619Z,8.77
2018-07-05T09:46:00.247Z,8.10
2018-07-05T09:48:29.066Z,7.47
2018-07-05T09:50:57.913Z,8.40
2018-07-05T09:53:26.334Z,9.70
2018-07-05T09:55:54.995Z,8.23
2018-07-05T09:58:24.331Z,11.30
2018-07-05T10:00:53.831Z,9.10
2018-07-05T10:03:23.489Z,9.17
2018-07-05T10:05:52.288Z,8.93
2018-07-05T10:08:20.920Z,6.57
2018-07-05T10:10:49.752Z,6.17
2018-07-05T10:13:18.676Z,7.40
2018-07-05T10:15:47.419Z,17.03
2018-07-05T10:18:16.056Z,18.50
2018-07-05T10:20:44.172Z,15.87
2018-07-05T10:23:12.363Z,10.33
2018-07-05T10:25:40.484Z,8.27
2018-07-05T10:28:08.657Z,8.33
2018-07-05T10:30:55.251Z,11.33
2018-07-05T10:33:41.854Z,10.07
2018-07-05T10:36:09.972Z,11.50
2018-07-05T10:38:38.200Z,11.23
2018-07-05T10:41:25.686Z,10.33
2018-07-05T10:44:12.609Z,10.83
2018-07-05T10:46:59.783Z,8.97
2018-07-05T10:49:46.550Z,7.70
2018-07-05T10:52:33.762Z,7.87
2018-07-05T10:55:20.943Z,9.80
2018-07-05T10:58:08.185Z,7.00
2018-07-05T11:00:55.304Z,8.60
2018-07-05T11:03:42.420Z,6.33
2018-07-05T11:06:29.518Z,9.00
2018-07-05T11:09:16.579Z,6.77
2018-07-05T11:12:03.586Z,5.73
2018-07-05T11:14:50.565Z,5.93
2018-07-05T11:17:37.792Z,6.20
2018-07-05T11:20:24.926Z,6.17
2018-07-05T11:23:12.046Z,6.43
2018-07-05T11:25:59.223Z,6.47
2018-07-05T11:28:46.310Z,5.40
2018-07-05T11:31:33.375Z,6.30
2018-07-05T11:34:20.314Z,8.70
2018-07-05T11:37:07.157Z,8.23
2018-07-05T11:39:48.147Z,7.30
2018-07-05T11:42:35.726Z,8.60
2018-07-05T11:45:22.959Z,6.20
2018-07-05T11:48:10.000Z,6.60
2018-07-05T11:50:56.792Z,6.97
2018-07-05T11:53:43.923Z,6.57
2018-07-05T11:56:31.122Z,7.60
2018-07-05T11:59:18.272Z,5.77
2018-07-05T12:02:05.403Z,6.83
2018-07-05T12:04:52.710Z,6.00
2018-07-05T12:07:39.942Z,5.87
2018-07-05T12:10:21.006Z,6.20
2018-07-05T12:13:08.148Z,5.90
2018-07-05T12:15:55.765Z,6.73
2018-07-05T12:18:42.788Z,6.53
2018-07-05T12:21:29.889Z,5.33
2018-07-05T12:24:17.472Z,5.33
2018-07-05T12:27:04.541Z,5.33
2018-07-05T12:29:51.507Z,5.90
2018-07-05T12:32:38.492Z,5.00
2018-07-05T12:35:25.490Z,4.73
2018-07-05T12:38:12.878Z,4.77
2018-07-05T12:41:00.112Z,7.40
2018-07-05T12:43:47.046Z,4.87
2018-07-05T12:46:33.948Z,5.23
2018-07-05T12:49:21.129Z,5.13
2018-07-05T12:52:08.052Z,5.37
2018-07-05T12:54:55.168Z,5.50
2018-07-05T12:57:42.232Z,5.13
2018-07-05T13:00:29.405Z,4.57
2018-07-05T13:03:16.654Z,4.60
2018-07-05T13:06:03.487Z,5.33
2018-07-05T13:08:50.505Z,5.77
2018-07-05T13:11:37.808Z,6.50
2018-07-05T13:14:25.013Z,4.37
2018-07-05T13:17:12.429Z,4.50
2018-07-05T13:19:59.557Z,6.50
2018-07-05T13:22:47.063Z,5.90
2018-07-05T13:25:34.377Z,5.00
2018-07-05T13:28:21.690Z,5.77
2018-07-05T13:31:08.613Z,5.87
2018-07-05T13:33:55.815Z,5.37
2018-07-05T13:36:42.894Z,6.67
2018-07-05T13:39:30.293Z,8.63
2018-07-05T13:42:17.082Z,11.33
2018-07-05T13:45:04.669Z,16.80
2018-07-05T13:47:51.920Z,6.97
2018-07-05T13:50:39.143Z,6.70
2018-07-05T13:53:20.619Z,8.23
2018-07-05T13:56:07.749Z,12.63
2018-07-05T13:58:55.066Z,12.13
2018-07-05T14:01:42.637Z,14.43
2018-07-05T14:04:29.868Z,13.63
2018-07-05T14:07:17.007Z,11.00
2018-07-05T14:10:04.051Z,9.57
2018-07-05T14:12:45.033Z,8.50
2018-07-05T14:15:32.456Z,9.37
2018-07-05T14:18:19.984Z,11.87
2018-07-05T14:21:06.783Z,8.03
2018-07-05T14:23:53.807Z,8.17
2018-07-05T14:26:40.805Z,7.23
2018-07-05T14:29:28.108Z,10.40
2018-07-05T14:32:15.521Z,6.90
2018-07-05T14:35:02.537Z,7.27
2018-07-05T14:37:49.456Z,7.10
2018-07-05T14:40:36.512Z,8.03
2018-07-05T14:43:23.425Z,6.67
2018-07-05T14:46:10.923Z,6.97
2018-07-05T14:48:58.249Z,7.20
2018-07-05T14:51:45.090Z,8.37
2018-07-05T14:54:31.956Z,7.93
2018-07-05T14:57:13.012Z,8.20
2018-07-05T15:00:00.300Z,5.83
2018-07-05T15:02:48.031Z,6.60
2018-07-05T15:05:35.254Z,5.90
2018-07-05T15:08:22.371Z,4.47
2018-07-05T15:11:09.488Z,5.37
2018-07-05T15:13:56.801Z,3.77
2018-07-05T15:16:44.372Z,4.40
2018-07-05T15:19:31.292Z,4.73
2018-07-05T15:22:18.143Z,3.90
2018-07-05T15:25:05.248Z,5.30
2018-07-05T15:27:52.330Z,4.70
2018-07-05T15:30:39.265Z,4.20
2018-07-05T15:33:26.881Z,4.30
2018-07-05T15:36:13.853Z,4.40
2018-07-05T15:39:01.249Z,6.13
2018-07-05T15:41:48.356Z,5.67
2018-07-05T15:44:35.479Z,6.50
2018-07-05T15:47:22.592Z,5.53
2018-07-05T15:50:09.383Z,4.90
2018-07-05T15:52:56.226Z,4.60
2018-07-05T15:55:43.353Z,4.40
2018-07-05T15:58:30.966Z,5.93
2018-07-05T16:01:18.381Z,4.23
2018-07-05T16:04:06.283Z,6.73
2018-07-05T16:06:53.187Z,5.47
2018-07-05T16:09:40.133Z,4.33
2018-07-05T16:12:27.240Z,6.37
2018-07-05T16:15:14.419Z,4.17
2018-07-05T16:18:01.672Z,4.67
2018-07-05T16:20:48.856Z,6.70
2018-07-05T16:23:35.883Z,5.03
2018-07-05T16:26:22.889Z,5.63
2018-07-05T16:29:09.728Z,5.63
2018-07-05T16:31:56.991Z,6.17
2018-07-05T16:34:44.377Z,6.47
2018-07-05T16:37:31.364Z,3.93
2018-07-05T16:40:18.583Z,5.70
2018-07-05T16:43:05.975Z,5.90
2018-07-05T16:45:53.236Z,6.93
2018-07-05T16:48:40.745Z,5.13
2018-07-05T16:51:27.851Z,4.80
2018-07-05T16:54:14.856Z,6.00
2018-07-05T16:57:01.775Z,4.63
2018-07-05T16:59:48.750Z,6.53
2018-07-05T17:02:35.932Z,6.57
2018-07-05T17:05:23.083Z,8.80
2018-07-05T17:08:10.457Z,6.30
2018-07-05T17:10:57.864Z,7.87
2018-07-05T17:13:45.593Z,7.73
2018-07-05T17:16:32.790Z,6.97
2018-07-05T17:19:19.606Z,6.37
2018-07-05T17:22:06.462Z,6.20
2018-07-05T17:24:53.863Z,7.60
2018-07-05T17:27:41.049Z,7.30
2018-07-05T17:30:28.007Z,4.23
2018-07-05T17:33:15.211Z,4.37
2018-07-05T17:36:03.310Z,5.90
2018-07-05T17:38:50.427Z,5.70
2018-07-05T17:41:37.722Z,5.00
2018-07-05T17:44:25.115Z,5.20
2018-07-05T17:47:12.433Z,6.07
2018-07-05T17:49:59.680Z,4.50
2018-07-05T17:52:46.658Z,6.30
2018-07-05T17:55:33.717Z,7.03
2018-07-05T17:58:20.900Z,4.03
2018-07-05T18:01:07.953Z,4.00
2018-07-05T18:03:55.054Z,5.87
2018-07-05T18:06:42.001Z,5.23
2018-07-05T18:09:29.020Z,5.40
2018-07-05T18:12:16.021Z,5.20
2018-07-05T18:15:03.018Z,5.63
2018-07-05T18:17:50.259Z,6.70
2018-07-05T18:20:37.377Z,5.57
2018-07-05T18:23:24.353Z,7.23
2018-07-05T18:26:11.876Z,6.80
2018-07-05T18:28:59.090Z,6.77
2018-07-05T18:31:46.431Z,6.47
2018-07-05T18:34:33.544Z,5.90
2018-07-05T18:37:20.661Z,8.10
2018-07-05T18:40:08.176Z,6.23
2018-07-05T18:42:49.561Z,6.83
2018-07-05T18:45:36.316Z,7.80
2018-07-05T18:48:23.262Z,7.63
2018-07-05T18:51:10.351Z,7.37
2018-07-05T18:53:57.505Z,8.80
2018-07-05T18:56:44.563Z,5.70
2018-07-05T18:59:31.690Z,6.67
2018-07-05T19:02:18.756Z,8.53
2018-07-05T19:05:05.672Z,9.63
2018-07-05T19:07:54.117Z,10.97
2018-07-05T19:10:41.153Z,8.43
2018-07-05T19:13:28.254Z,9.47
2018-07-05T19:16:15.452Z,7.10
2018-07-05T19:19:02.383Z,9.97
2018-07-05T19:21:49.900Z,8.43
2018-07-05T19:24:37.003Z,8.93
2018-07-05T19:27:24.055Z,6.20
2018-07-05T19:30:11.185Z,10.27
2018-07-05T19:32:58.491Z,7.13
2018-07-05T19:35:45.674Z,9.50
2018-07-05T19:38:32.889Z,10.07
2018-07-05T19:41:19.932Z,10.13
2018-07-05T19:44:07.122Z,9.50
2018-07-05T19:46:54.094Z,7.30
2018-07-05T19:49:40.990Z,8.77
2018-07-05T19:52:28.144Z,8.20
2018-07-05T19:55:15.225Z,9.73
2018-07-05T19:58:02.203Z,8.13
2018-07-05T20:00:49.386Z,11.23
2018-07-05T20:03:36.573Z,9.60
2018-07-05T20:06:24.854Z,13.13
2018-07-05T20:09:12.080Z,8.73
2018-07-05T20:12:04.216Z,9.87
2018-07-05T20:14:51.335Z,9.83
2018-07-05T20:17:38.369Z,11.63
2018-07-05T20:20:25.574Z,7.97
2018-07-05T20:23:12.941Z,9.13
2018-07-05T20:25:59.548Z,8.03
2018-07-05T20:28:46.714Z,9.83
2018-07-05T20:31:34.137Z,9.67
2018-07-05T20:34:21.156Z,11.50
2018-07-05T20:37:08.792Z,13.13
2018-07-05T20:39:49.890Z,11.13
2018-07-05T20:42:37.393Z,11.87
2018-07-05T20:45:24.371Z,14.57
2018-07-05T20:48:11.353Z,10.50
2018-07-05T20:50:58.550Z,13.40
2018-07-05T20:53:46.187Z,12.97
2018-07-05T20:56:27.251Z,9.90
2018-07-05T20:59:14.470Z,12.43
2018-07-05T21:02:01.498Z,10.47
2018-07-05T21:04:49.026Z,11.00
2018-07-05T21:07:36.141Z,12.23
2018-07-05T21:10:23.258Z,13.07
2018-07-05T21:13:10.236Z,9.23
2018-07-05T21:15:57.492Z,12.53
2018-07-05T21:18:44.887Z,13.13
2018-07-05T21:21:31.852Z,10.63
2018-07-05T21:24:13.022Z,12.13
2018-07-05T21:27:00.249Z,12.87
2018-07-05T21:29:47.355Z,10.13
2018-07-05T21:32:34.680Z,11.93
2018-07-05T21:35:21.802Z,12.90
2018-07-05T21:38:08.783Z,12.53
2018-07-05T21:40:55.842Z,10.57
2018-07-05T21:43:43.344Z,11.97
2018-07-05T21:46:30.463Z,11.97
2018-07-05T21:49:17.777Z,14.33
2018-07-05T21:52:04.879Z,14.57
2018-07-05T21:54:52.403Z,13.87
2018-07-05T21:57:39.715Z,11.87
2018-07-05T22:00:27.106Z,11.43
2018-07-05T22:03:14.941Z,12.00
2018-07-05T22:06:02.260Z,13.67
2018-07-05T22:08:43.588Z,13.30
2018-07-05T22:11:30.778Z,19.87
2018-07-05T22:14:17.836Z,20.93
2018-07-05T22:17:09.731Z,20.00
2018-07-05T22:20:01.558Z,18.80
2018-07-05T22:22:53.796Z,17.40
2018-07-05T22:25:45.681Z,15.60
2018-07-05T22:28:37.592Z,15.60
2018-07-05T22:31:29.433Z,15.43
2018-07-05T22:34:16.431Z,14.20
2018-07-05T22:37:03.266Z,15.77
2018-07-05T22:39:50.192Z,14.60
2018-07-05T22:42:37.644Z,17.80
2018-07-05T22:45:24.885Z,17.03
2018-07-05T22:48:12.089Z,18.83
2018-07-05T22:50:59.515Z,14.13
2018-07-05T22:53:46.843Z,13.77
2018-07-05T22:56:33.954Z,19.23
2018-07-05T22:59:21.129Z,15.37
2018-07-05T23:02:08.341Z,16.90
2018-07-05T23:04:55.416Z,16.03
2018-07-05T23:07:42.595Z,14.97
2018-07-05T23:10:29.720Z,14.80
2018-07-05T23:13:17.237Z,19.23
2018-07-05T23:16:04.340Z,16.10
2018-07-05T23:18:51.862Z,17.23
2018-07-05T23:21:39.326Z,14.90
2018-07-05T23:24:26.475Z,15.57
2018-07-05T23:27:13.288Z,15.03
2018-07-05T23:30:00.305Z,17.13
2018-07-05T23:32:47.740Z,13.37
2018-07-05T23:35:34.845Z,16.47
2018-07-05T23:38:22.079Z,13.27
2018-07-05T23:41:09.397Z,12.97
2018-07-05T23:43:56.509Z,17.17
2018-07-05T23:46:43.804Z,16.17
2018-07-05T23:49:30.899Z,13.47
2018-07-05T23:52:18.120Z,14.43
2018-07-05T23:55:05.562Z,15.23
2018-07-05T23:57:52.873Z,17.40
